sensor_id;sensor_type;location;lat;lon;timestamp;temperature;humidity
53410;DHT22;66590;50.734;4.246;2023-04-24T00:01:18;9.20;99.90
53410;DHT22;66590;50.734;4.246;2023-04-24T00:03:45;9.20;99.90
53410;DHT22;66590;50.734;4.246;2023-04-24T00:06:13;9.10;99.90
53410;DHT22;66590;50.734;4.246;2023-04-24T00:08:40;9.10;99.90
53410;DHT22;66590;50.734;4.246;2023-04-24T00:11:07;9.00;99.90
53410;DHT22;66590;50.734;4.246;2023-04-24T00:13:34;9.00;99.90
53410;DHT22;66590;50.734;4.246;2023-04-24T00:16:01;9.10;99.90
53410;DHT22;66590;50.734;4.246;2023-04-24T00:18:30;9.10;99.90
53410;DHT22;66590;50.734;4.246;2023-04-24T00:20:57;9.10;99.90
53410;DHT22;66590;50.734;4.246;2023-04-24T00:23:24;9.10;99.90
53410;DHT22;66590;50.734;4.246;2023-04-24T00:25:51;9.00;99.90
53410;DHT22;66590;50.734;4.246;2023-04-24T00:28:18;9.00;99.90
53410;DHT22;66590;50.734;4.246;2023-04-24T00:30:45;9.20;99.90
53410;DHT22;66590;50.734;4.246;2023-04-24T00:33:12;9.10;99.90
53410;DHT22;66590;50.734;4.246;2023-04-24T00:35:40;9.20;99.90
53410;DHT22;66590;50.734;4.246;2023-04-24T00:38:07;9.10;99.90
53410;DHT22;66590;50.734;4.246;2023-04-24T00:40:34;9.00;99.90
53410;DHT22;66590;50.734;4.246;2023-04-24T00:43:01;9.20;99.90
53410;DHT22;66590;50.734;4.246;2023-04-24T00:45:28;9.00;99.90
53410;DHT22;66590;50.734;4.246;2023-04-24T00:47:55;9.10;99.90
53410;DHT22;66590;50.734;4.246;2023-04-24T00:50:24;8.90;99.90
53410;DHT22;66590;50.734;4.246;2023-04-24T00:52:52;9.00;99.90
53410;DHT22;66590;50.734;4.246;2023-04-24T00:55:19;8.90;99.90
53410;DHT22;66590;50.734;4.246;2023-04-24T00:57:47;8.90;99.90
53410;DHT22;66590;50.734;4.246;2023-04-24T01:00:14;8.80;99.90
53410;DHT22;66590;50.734;4.246;2023-04-24T01:02:43;8.60;99.90
53410;DHT22;66590;50.734;4.246;2023-04-24T01:05:12;8.80;99.90
53410;DHT22;66590;50.734;4.246;2023-04-24T01:07:39;8.90;99.90
53410;DHT22;66590;50.734;4.246;2023-04-24T01:10:09;8.90;99.90
53410;DHT22;66590;50.734;4.246;2023-04-24T01:12:37;8.80;99.90
53410;DHT22;66590;50.734;4.246;2023-04-24T01:15:05;8.70;99.90
53410;DHT22;66590;50.734;4.246;2023-04-24T01:17:32;8.80;99.90
53410;DHT22;66590;50.734;4.246;2023-04-24T01:19:59;8.80;99.90
53410;DHT22;66590;50.734;4.246;2023-04-24T01:22:28;8.80;99.90
53410;DHT22;66590;50.734;4.246;2023-04-24T01:24:55;8.90;99.90
53410;DHT22;66590;50.734;4.246;2023-04-24T01:27:22;9.00;99.90
53410;DHT22;66590;50.734;4.246;2023-04-24T01:29:49;8.90;99.90
53410;DHT22;66590;50.734;4.246;2023-04-24T01:32:16;8.80;99.90
53410;DHT22;66590;50.734;4.246;2023-04-24T01:34:43;8.80;99.90
53410;DHT22;66590;50.734;4.246;2023-04-24T01:37:11;8.90;99.90
53410;DHT22;66590;50.734;4.246;2023-04-24T01:39:39;8.80;99.90
53410;DHT22;66590;50.734;4.246;2023-04-24T01:42:07;8.80;99.90
53410;DHT22;66590;50.734;4.246;2023-04-24T01:44:34;8.80;99.90
53410;DHT22;66590;50.734;4.246;2023-04-24T01:47:01;8.80;99.90
53410;DHT22;66590;50.734;4.246;2023-04-24T01:49:28;8.80;99.90
53410;DHT22;66590;50.734;4.246;2023-04-24T01:51:55;8.70;99.90
53410;DHT22;66590;50.734;4.246;2023-04-24T01:54:22;8.80;99.90
53410;DHT22;66590;50.734;4.246;2023-04-24T01:56:50;8.60;99.90
53410;DHT22;66590;50.734;4.246;2023-04-24T01:59:17;8.60;99.90
53410;DHT22;66590;50.734;4.246;2023-04-24T02:01:45;8.60;99.90
53410;DHT22;66590;50.734;4.246;2023-04-24T02:04:12;8.70;99.90
53410;DHT22;66590;50.734;4.246;2023-04-24T02:06:40;8.80;99.90
53410;DHT22;66590;50.734;4.246;2023-04-24T02:09:07;8.70;99.90
53410;DHT22;66590;50.734;4.246;2023-04-24T02:11:33;8.60;99.90
53410;DHT22;66590;50.734;4.246;2023-04-24T02:14:02;8.70;99.90
53410;DHT22;66590;50.734;4.246;2023-04-24T02:16:29;8.60;99.90
53410;DHT22;66590;50.734;4.246;2023-04-24T02:18:56;8.50;99.90
53410;DHT22;66590;50.734;4.246;2023-04-24T02:21:23;8.60;99.90
53410;DHT22;66590;50.734;4.246;2023-04-24T02:23:50;8.70;99.90
53410;DHT22;66590;50.734;4.246;2023-04-24T02:26:17;8.60;99.90
53410;DHT22;66590;50.734;4.246;2023-04-24T02:28:44;8.60;99.90
53410;DHT22;66590;50.734;4.246;2023-04-24T02:31:13;8.50;99.90
53410;DHT22;66590;50.734;4.246;2023-04-24T02:33:40;8.60;99.90
53410;DHT22;66590;50.734;4.246;2023-04-24T02:36:07;8.60;99.90
53410;DHT22;66590;50.734;4.246;2023-04-24T02:38:34;8.50;99.90
53410;DHT22;66590;50.734;4.246;2023-04-24T02:41:01;8.50;99.90
53410;DHT22;66590;50.734;4.246;2023-04-24T02:43:28;8.50;99.90
53410;DHT22;66590;50.734;4.246;2023-04-24T02:45:55;8.50;99.90
53410;DHT22;66590;50.734;4.246;2023-04-24T02:48:24;8.50;99.90
53410;DHT22;66590;50.734;4.246;2023-04-24T02:50:50;8.50;99.90
53410;DHT22;66590;50.734;4.246;2023-04-24T02:53:18;8.50;99.90
53410;DHT22;66590;50.734;4.246;2023-04-24T02:55:45;8.50;99.90
53410;DHT22;66590;50.734;4.246;2023-04-24T02:58:12;8.50;99.90
53410;DHT22;66590;50.734;4.246;2023-04-24T03:00:39;8.50;99.90
53410;DHT22;66590;50.734;4.246;2023-04-24T03:03:06;8.50;99.90
53410;DHT22;66590;50.734;4.246;2023-04-24T03:05:34;8.40;99.90
53410;DHT22;66590;50.734;4.246;2023-04-24T03:08:01;8.40;99.90
53410;DHT22;66590;50.734;4.246;2023-04-24T03:10:28;8.40;99.90
53410;DHT22;66590;50.734;4.246;2023-04-24T03:12:55;8.40;99.90
53410;DHT22;66590;50.734;4.246;2023-04-24T03:15:22;8.40;99.90
53410;DHT22;66590;50.734;4.246;2023-04-24T03:17:49;8.60;99.90
53410;DHT22;66590;50.734;4.246;2023-04-24T03:20:16;8.70;99.90
53410;DHT22;66590;50.734;4.246;2023-04-24T03:22:45;8.60;99.90
53410;DHT22;66590;50.734;4.246;2023-04-24T03:25:12;8.60;99.90
53410;DHT22;66590;50.734;4.246;2023-04-24T03:27:39;8.40;99.90
53410;DHT22;66590;50.734;4.246;2023-04-24T03:30:07;8.30;99.90
53410;DHT22;66590;50.734;4.246;2023-04-24T03:32:34;8.40;99.90
53410;DHT22;66590;50.734;4.246;2023-04-24T03:35:01;8.40;99.90
53410;DHT22;66590;50.734;4.246;2023-04-24T03:37:28;8.50;99.90
53410;DHT22;66590;50.734;4.246;2023-04-24T03:39:56;8.40;99.90
53410;DHT22;66590;50.734;4.246;2023-04-24T03:42:23;8.30;99.90
53410;DHT22;66590;50.734;4.246;2023-04-24T03:44:50;8.30;99.90
53410;DHT22;66590;50.734;4.246;2023-04-24T03:47:18;8.20;99.90
53410;DHT22;66590;50.734;4.246;2023-04-24T03:49:45;8.20;99.90
53410;DHT22;66590;50.734;4.246;2023-04-24T03:52:12;8.10;99.90
53410;DHT22;66590;50.734;4.246;2023-04-24T03:54:39;8.20;99.90
53410;DHT22;66590;50.734;4.246;2023-04-24T03:57:07;8.30;99.90
53410;DHT22;66590;50.734;4.246;2023-04-24T03:59:34;8.30;99.90
53410;DHT22;66590;50.734;4.246;2023-04-24T04:02:01;8.40;99.90
53410;DHT22;66590;50.734;4.246;2023-04-24T04:04:28;8.40;99.90
53410;DHT22;66590;50.734;4.246;2023-04-24T04:06:56;8.40;99.90
53410;DHT22;66590;50.734;4.246;2023-04-24T04:09:22;8.40;99.90
53410;DHT22;66590;50.734;4.246;2023-04-24T04:11:49;8.40;99.90
53410;DHT22;66590;50.734;4.246;2023-04-24T04:14:18;8.50;99.90
53410;DHT22;66590;50.734;4.246;2023-04-24T04:16:45;8.60;99.90
53410;DHT22;66590;50.734;4.246;2023-04-24T04:19:12;8.60;99.90
53410;DHT22;66590;50.734;4.246;2023-04-24T04:21:39;8.60;99.90
53410;DHT22;66590;50.734;4.246;2023-04-24T04:24:06;8.60;99.90
53410;DHT22;66590;50.734;4.246;2023-04-24T04:26:33;8.60;99.90
53410;DHT22;66590;50.734;4.246;2023-04-24T04:29:00;8.60;99.90
53410;DHT22;66590;50.734;4.246;2023-04-24T04:31:29;8.60;99.90
53410;DHT22;66590;50.734;4.246;2023-04-24T04:33:56;8.70;99.90
53410;DHT22;66590;50.734;4.246;2023-04-24T04:36:23;8.70;99.90
53410;DHT22;66590;50.734;4.246;2023-04-24T04:38:50;8.60;99.90
53410;DHT22;66590;50.734;4.246;2023-04-24T04:41:17;8.60;99.90
53410;DHT22;66590;50.734;4.246;2023-04-24T04:43:44;8.60;99.90
53410;DHT22;66590;50.734;4.246;2023-04-24T04:46:11;8.50;99.90
53410;DHT22;66590;50.734;4.246;2023-04-24T04:48:39;8.50;99.90
53410;DHT22;66590;50.734;4.246;2023-04-24T04:51:06;8.60;99.90
53410;DHT22;66590;50.734;4.246;2023-04-24T04:53:33;8.50;99.90
53410;DHT22;66590;50.734;4.246;2023-04-24T04:56:00;8.50;99.90
53410;DHT22;66590;50.734;4.246;2023-04-24T04:58:27;8.50;99.90
53410;DHT22;66590;50.734;4.246;2023-04-24T05:00:54;8.50;99.90
53410;DHT22;66590;50.734;4.246;2023-04-24T05:03:22;8.50;99.90
53410;DHT22;66590;50.734;4.246;2023-04-24T05:05:50;8.50;99.90
53410;DHT22;66590;50.734;4.246;2023-04-24T05:08:17;8.50;99.90
53410;DHT22;66590;50.734;4.246;2023-04-24T05:10:53;8.50;99.90
53410;DHT22;66590;50.734;4.246;2023-04-24T05:13:21;8.50;99.90
53410;DHT22;66590;50.734;4.246;2023-04-24T05:16:04;8.50;99.90
53410;DHT22;66590;50.734;4.246;2023-04-24T05:18:31;8.50;99.90
53410;DHT22;66590;50.734;4.246;2023-04-24T05:21:00;8.50;99.90
53410;DHT22;66590;50.734;4.246;2023-04-24T05:23:27;8.40;99.90
53410;DHT22;66590;50.734;4.246;2023-04-24T05:25:54;8.50;99.90
53410;DHT22;66590;50.734;4.246;2023-04-24T05:28:21;8.40;99.90
53410;DHT22;66590;50.734;4.246;2023-04-24T05:30:48;8.50;99.90
53410;DHT22;66590;50.734;4.246;2023-04-24T05:33:16;8.50;99.90
53410;DHT22;66590;50.734;4.246;2023-04-24T05:35:43;8.50;99.90
53410;DHT22;66590;50.734;4.246;2023-04-24T05:38:11;8.50;99.90
53410;DHT22;66590;50.734;4.246;2023-04-24T05:40:38;8.50;99.90
53410;DHT22;66590;50.734;4.246;2023-04-24T05:43:05;8.50;99.90
53410;DHT22;66590;50.734;4.246;2023-04-24T05:45:32;8.50;99.90
53410;DHT22;66590;50.734;4.246;2023-04-24T05:47:59;8.60;99.90
53410;DHT22;66590;50.734;4.246;2023-04-24T05:50:27;8.50;99.90
53410;DHT22;66590;50.734;4.246;2023-04-24T05:52:54;8.50;99.90
53410;DHT22;66590;50.734;4.246;2023-04-24T05:55:22;8.40;99.90
53410;DHT22;66590;50.734;4.246;2023-04-24T05:57:49;8.40;99.90
53410;DHT22;66590;50.734;4.246;2023-04-24T06:00:17;8.40;99.90
53410;DHT22;66590;50.734;4.246;2023-04-24T06:02:44;8.50;99.90
53410;DHT22;66590;50.734;4.246;2023-04-24T06:05:11;8.50;99.90
53410;DHT22;66590;50.734;4.246;2023-04-24T06:07:38;8.50;99.90
53410;DHT22;66590;50.734;4.246;2023-04-24T06:10:06;8.50;99.90
53410;DHT22;66590;50.734;4.246;2023-04-24T06:12:34;8.50;99.90
53410;DHT22;66590;50.734;4.246;2023-04-24T06:15:01;8.40;99.90
53410;DHT22;66590;50.734;4.246;2023-04-24T06:17:28;8.40;99.90
53410;DHT22;66590;50.734;4.246;2023-04-24T06:19:55;8.40;99.90
53410;DHT22;66590;50.734;4.246;2023-04-24T06:22:22;8.40;99.90
53410;DHT22;66590;50.734;4.246;2023-04-24T06:24:49;8.40;99.90
53410;DHT22;66590;50.734;4.246;2023-04-24T06:27:16;8.40;99.90
53410;DHT22;66590;50.734;4.246;2023-04-24T06:29:45;8.40;99.90
53410;DHT22;66590;50.734;4.246;2023-04-24T06:32:11;8.50;99.90
53410;DHT22;66590;50.734;4.246;2023-04-24T06:34:39;8.60;99.90
53410;DHT22;66590;50.734;4.246;2023-04-24T06:37:06;8.60;99.90
53410;DHT22;66590;50.734;4.246;2023-04-24T06:39:33;8.50;99.90
53410;DHT22;66590;50.734;4.246;2023-04-24T06:42:00;8.60;99.90
53410;DHT22;66590;50.734;4.246;2023-04-24T06:44:27;8.60;99.90
53410;DHT22;66590;50.734;4.246;2023-04-24T06:46:56;8.70;99.90
53410;DHT22;66590;50.734;4.246;2023-04-24T06:49:23;8.70;99.90
53410;DHT22;66590;50.734;4.246;2023-04-24T06:51:50;8.80;99.90
53410;DHT22;66590;50.734;4.246;2023-04-24T06:54:17;8.80;99.90
53410;DHT22;66590;50.734;4.246;2023-04-24T06:56:44;8.80;99.90
53410;DHT22;66590;50.734;4.246;2023-04-24T06:59:11;8.80;99.90
53410;DHT22;66590;50.734;4.246;2023-04-24T07:01:39;8.90;99.90
53410;DHT22;66590;50.734;4.246;2023-04-24T07:04:07;8.90;99.90
53410;DHT22;66590;50.734;4.246;2023-04-24T07:06:35;8.90;99.90
53410;DHT22;66590;50.734;4.246;2023-04-24T07:09:02;9.00;99.90
53410;DHT22;66590;50.734;4.246;2023-04-24T07:11:29;9.00;99.90
53410;DHT22;66590;50.734;4.246;2023-04-24T07:13:58;9.10;99.90
53410;DHT22;66590;50.734;4.246;2023-04-24T07:16:25;9.10;99.90
53410;DHT22;66590;50.734;4.246;2023-04-24T07:18:53;9.10;99.90
53410;DHT22;66590;50.734;4.246;2023-04-24T07:21:21;9.20;99.90
53410;DHT22;66590;50.734;4.246;2023-04-24T07:23:48;9.20;99.90
53410;DHT22;66590;50.734;4.246;2023-04-24T07:26:15;9.10;99.90
53410;DHT22;66590;50.734;4.246;2023-04-24T07:28:43;9.20;99.90
53410;DHT22;66590;50.734;4.246;2023-04-24T07:31:11;9.20;99.90
53410;DHT22;66590;50.734;4.246;2023-04-24T07:33:38;9.20;99.90
53410;DHT22;66590;50.734;4.246;2023-04-24T07:36:06;9.30;99.90
53410;DHT22;66590;50.734;4.246;2023-04-24T07:38:34;9.20;99.90
53410;DHT22;66590;50.734;4.246;2023-04-24T07:41:01;9.30;99.90
53410;DHT22;66590;50.734;4.246;2023-04-24T07:43:28;9.40;99.90
53410;DHT22;66590;50.734;4.246;2023-04-24T07:45:55;9.40;99.90
53410;DHT22;66590;50.734;4.246;2023-04-24T07:48:22;9.50;99.90
53410;DHT22;66590;50.734;4.246;2023-04-24T07:50:50;9.50;99.90
53410;DHT22;66590;50.734;4.246;2023-04-24T07:53:16;9.50;99.90
53410;DHT22;66590;50.734;4.246;2023-04-24T07:55:45;9.30;99.90
53410;DHT22;66590;50.734;4.246;2023-04-24T07:58:12;9.20;99.90
53410;DHT22;66590;50.734;4.246;2023-04-24T08:00:39;9.20;99.90
53410;DHT22;66590;50.734;4.246;2023-04-24T08:03:06;9.20;99.90
53410;DHT22;66590;50.734;4.246;2023-04-24T08:05:34;9.10;99.90
53410;DHT22;66590;50.734;4.246;2023-04-24T08:08:02;9.10;99.90
53410;DHT22;66590;50.734;4.246;2023-04-24T08:10:29;9.20;99.90
53410;DHT22;66590;50.734;4.246;2023-04-24T08:12:58;9.30;99.90
53410;DHT22;66590;50.734;4.246;2023-04-24T08:15:26;9.60;99.90
53410;DHT22;66590;50.734;4.246;2023-04-24T08:17:54;9.70;99.90
53410;DHT22;66590;50.734;4.246;2023-04-24T08:20:24;9.80;99.90
53410;DHT22;66590;50.734;4.246;2023-04-24T08:22:51;9.80;99.90
53410;DHT22;66590;50.734;4.246;2023-04-24T08:25:18;9.80;99.90
53410;DHT22;66590;50.734;4.246;2023-04-24T08:27:45;10.00;99.90
53410;DHT22;66590;50.734;4.246;2023-04-24T08:30:14;10.40;99.90
53410;DHT22;66590;50.734;4.246;2023-04-24T08:32:41;10.40;99.90
53410;DHT22;66590;50.734;4.246;2023-04-24T08:35:08;10.50;99.90
53410;DHT22;66590;50.734;4.246;2023-04-24T08:37:36;10.80;99.90
53410;DHT22;66590;50.734;4.246;2023-04-24T08:40:06;11.00;99.90
53410;DHT22;66590;50.734;4.246;2023-04-24T08:42:37;11.10;99.90
53410;DHT22;66590;50.734;4.246;2023-04-24T08:45:05;11.30;99.90
53410;DHT22;66590;50.734;4.246;2023-04-24T08:47:35;11.50;99.90
53410;DHT22;66590;50.734;4.246;2023-04-24T08:50:03;11.40;99.90
53410;DHT22;66590;50.734;4.246;2023-04-24T08:52:30;11.60;99.90
53410;DHT22;66590;50.734;4.246;2023-04-24T08:54:57;11.60;99.90
53410;DHT22;66590;50.734;4.246;2023-04-24T08:57:27;11.80;99.90
53410;DHT22;66590;50.734;4.246;2023-04-24T08:59:54;11.60;99.90
53410;DHT22;66590;50.734;4.246;2023-04-24T09:02:23;11.10;99.90
53410;DHT22;66590;50.734;4.246;2023-04-24T09:04:52;10.80;99.90
53410;DHT22;66590;50.734;4.246;2023-04-24T09:07:19;10.70;99.90
53410;DHT22;66590;50.734;4.246;2023-04-24T09:09:50;10.60;99.90
53410;DHT22;66590;50.734;4.246;2023-04-24T09:12:18;10.60;99.90
53410;DHT22;66590;50.734;4.246;2023-04-24T09:14:45;10.50;99.90
53410;DHT22;66590;50.734;4.246;2023-04-24T09:17:12;10.60;99.90
53410;DHT22;66590;50.734;4.246;2023-04-24T09:19:40;10.80;99.90
53410;DHT22;66590;50.734;4.246;2023-04-24T09:22:09;11.30;99.90
53410;DHT22;66590;50.734;4.246;2023-04-24T09:24:36;11.30;99.90
53410;DHT22;66590;50.734;4.246;2023-04-24T09:27:05;11.00;99.90
53410;DHT22;66590;50.734;4.246;2023-04-24T09:29:35;10.90;99.90
53410;DHT22;66590;50.734;4.246;2023-04-24T09:32:17;10.70;99.90
53410;DHT22;66590;50.734;4.246;2023-04-24T09:34:47;10.70;99.90
53410;DHT22;66590;50.734;4.246;2023-04-24T09:37:27;11.00;99.90
53410;DHT22;66590;50.734;4.246;2023-04-24T09:40:11;11.20;99.90
53410;DHT22;66590;50.734;4.246;2023-04-24T09:42:38;11.60;99.90
53410;DHT22;66590;50.734;4.246;2023-04-24T09:45:09;11.40;99.90
53410;DHT22;66590;50.734;4.246;2023-04-24T09:47:38;11.30;99.90
53410;DHT22;66590;50.734;4.246;2023-04-24T09:50:15;11.00;99.90
53410;DHT22;66590;50.734;4.246;2023-04-24T09:52:56;11.10;99.90
53410;DHT22;66590;50.734;4.246;2023-04-24T09:55:24;11.10;99.90
53410;DHT22;66590;50.734;4.246;2023-04-24T09:57:52;11.10;99.90
53410;DHT22;66590;50.734;4.246;2023-04-24T10:00:25;11.40;99.90
53410;DHT22;66590;50.734;4.246;2023-04-24T10:02:56;11.40;99.90
53410;DHT22;66590;50.734;4.246;2023-04-24T10:05:26;11.40;99.90
53410;DHT22;66590;50.734;4.246;2023-04-24T10:07:59;11.40;99.90
53410;DHT22;66590;50.734;4.246;2023-04-24T10:10:27;11.30;99.90
53410;DHT22;66590;50.734;4.246;2023-04-24T10:12:55;11.10;99.90
53410;DHT22;66590;50.734;4.246;2023-04-24T10:15:22;10.90;99.90
53410;DHT22;66590;50.734;4.246;2023-04-24T10:17:50;11.00;99.90
53410;DHT22;66590;50.734;4.246;2023-04-24T10:20:21;11.00;99.90
53410;DHT22;66590;50.734;4.246;2023-04-24T10:22:49;11.20;99.90
53410;DHT22;66590;50.734;4.246;2023-04-24T10:25:19;11.40;99.90
53410;DHT22;66590;50.734;4.246;2023-04-24T10:27:47;11.50;99.90
53410;DHT22;66590;50.734;4.246;2023-04-24T10:30:14;11.50;99.90
53410;DHT22;66590;50.734;4.246;2023-04-24T10:32:42;11.40;99.90
53410;DHT22;66590;50.734;4.246;2023-04-24T10:35:10;11.30;99.90
53410;DHT22;66590;50.734;4.246;2023-04-24T10:37:40;11.20;99.90
53410;DHT22;66590;50.734;4.246;2023-04-24T10:40:10;11.10;99.90
53410;DHT22;66590;50.734;4.246;2023-04-24T10:42:41;11.10;99.90
53410;DHT22;66590;50.734;4.246;2023-04-24T10:45:16;11.00;99.90
53410;DHT22;66590;50.734;4.246;2023-04-24T10:47:47;10.80;99.90
53410;DHT22;66590;50.734;4.246;2023-04-24T10:50:17;10.70;99.90
53410;DHT22;66590;50.734;4.246;2023-04-24T10:52:45;10.90;99.90
53410;DHT22;66590;50.734;4.246;2023-04-24T10:55:12;11.00;99.90
53410;DHT22;66590;50.734;4.246;2023-04-24T10:58:01;11.30;99.90
53410;DHT22;66590;50.734;4.246;2023-04-24T11:00:29;11.50;99.90
53410;DHT22;66590;50.734;4.246;2023-04-24T11:02:57;11.60;99.90
53410;DHT22;66590;50.734;4.246;2023-04-24T11:05:51;11.70;99.90
53410;DHT22;66590;50.734;4.246;2023-04-24T11:08:24;11.60;99.90
53410;DHT22;66590;50.734;4.246;2023-04-24T11:10:56;11.50;99.90
53410;DHT22;66590;50.734;4.246;2023-04-24T11:13:26;11.30;99.90
53410;DHT22;66590;50.734;4.246;2023-04-24T11:16:12;11.20;99.90
53410;DHT22;66590;50.734;4.246;2023-04-24T11:18:39;11.10;99.90
53410;DHT22;66590;50.734;4.246;2023-04-24T11:21:11;11.20;99.90
53410;DHT22;66590;50.734;4.246;2023-04-24T11:23:39;11.40;99.90
53410;DHT22;66590;50.734;4.246;2023-04-24T11:26:12;11.60;99.90
53410;DHT22;66590;50.734;4.246;2023-04-24T11:28:50;11.60;99.90
53410;DHT22;66590;50.734;4.246;2023-04-24T11:31:37;11.60;99.90
53410;DHT22;66590;50.734;4.246;2023-04-24T11:34:08;11.40;99.90
53410;DHT22;66590;50.734;4.246;2023-04-24T11:36:36;11.50;99.90
53410;DHT22;66590;50.734;4.246;2023-04-24T11:39:04;11.80;99.90
53410;DHT22;66590;50.734;4.246;2023-04-24T11:41:31;12.20;99.90
53410;DHT22;66590;50.734;4.246;2023-04-24T11:44:00;12.70;99.90
53410;DHT22;66590;50.734;4.246;2023-04-24T11:46:28;12.60;99.90
53410;DHT22;66590;50.734;4.246;2023-04-24T11:48:56;12.40;99.90
53410;DHT22;66590;50.734;4.246;2023-04-24T11:51:23;12.50;99.90
53410;DHT22;66590;50.734;4.246;2023-04-24T11:53:53;12.80;99.90
53410;DHT22;66590;50.734;4.246;2023-04-24T11:56:29;13.00;99.90
53410;DHT22;66590;50.734;4.246;2023-04-24T11:58:56;12.90;99.90
53410;DHT22;66590;50.734;4.246;2023-04-24T12:01:25;12.70;99.90
53410;DHT22;66590;50.734;4.246;2023-04-24T12:03:59;12.60;99.90
53410;DHT22;66590;50.734;4.246;2023-04-24T12:06:27;12.90;99.90
53410;DHT22;66590;50.734;4.246;2023-04-24T12:08:54;13.20;99.90
53410;DHT22;66590;50.734;4.246;2023-04-24T12:11:30;13.20;99.90
53410;DHT22;66590;50.734;4.246;2023-04-24T12:13:57;13.70;99.90
53410;DHT22;66590;50.734;4.246;2023-04-24T12:16:26;14.00;99.90
53410;DHT22;66590;50.734;4.246;2023-04-24T12:18:53;14.00;99.90
53410;DHT22;66590;50.734;4.246;2023-04-24T12:21:22;13.70;99.90
53410;DHT22;66590;50.734;4.246;2023-04-24T12:23:49;13.70;99.90
53410;DHT22;66590;50.734;4.246;2023-04-24T12:26:17;14.10;99.90
53410;DHT22;66590;50.734;4.246;2023-04-24T12:28:47;14.30;99.90
53410;DHT22;66590;50.734;4.246;2023-04-24T12:31:15;13.50;99.90
53410;DHT22;66590;50.734;4.246;2023-04-24T12:33:43;13.50;99.90
53410;DHT22;66590;50.734;4.246;2023-04-24T12:36:11;13.40;99.90
53410;DHT22;66590;50.734;4.246;2023-04-24T12:38:39;13.30;99.90
53410;DHT22;66590;50.734;4.246;2023-04-24T12:41:07;13.40;99.90
53410;DHT22;66590;50.734;4.246;2023-04-24T12:43:34;13.50;99.90
53410;DHT22;66590;50.734;4.246;2023-04-24T12:46:02;13.50;99.90
53410;DHT22;66590;50.734;4.246;2023-04-24T12:48:29;13.30;99.90
53410;DHT22;66590;50.734;4.246;2023-04-24T12:51:00;13.50;99.90
53410;DHT22;66590;50.734;4.246;2023-04-24T12:53:27;13.60;99.90
53410;DHT22;66590;50.734;4.246;2023-04-24T12:55:55;13.70;99.90
53410;DHT22;66590;50.734;4.246;2023-04-24T12:58:22;13.40;99.90
53410;DHT22;66590;50.734;4.246;2023-04-24T13:00:49;13.00;99.90
53410;DHT22;66590;50.734;4.246;2023-04-24T13:03:17;13.00;99.90
53410;DHT22;66590;50.734;4.246;2023-04-24T13:05:45;12.90;99.90
53410;DHT22;66590;50.734;4.246;2023-04-24T13:08:13;12.50;99.90
53410;DHT22;66590;50.734;4.246;2023-04-24T13:10:40;12.50;99.90
53410;DHT22;66590;50.734;4.246;2023-04-24T13:13:07;12.50;99.90
53410;DHT22;66590;50.734;4.246;2023-04-24T13:15:35;12.60;99.90
53410;DHT22;66590;50.734;4.246;2023-04-24T13:18:02;12.70;99.90
53410;DHT22;66590;50.734;4.246;2023-04-24T13:20:29;12.80;99.90
53410;DHT22;66590;50.734;4.246;2023-04-24T13:22:56;12.70;99.90
53410;DHT22;66590;50.734;4.246;2023-04-24T13:25:25;12.80;99.90
53410;DHT22;66590;50.734;4.246;2023-04-24T13:27:51;12.80;99.90
53410;DHT22;66590;50.734;4.246;2023-04-24T13:30:19;12.80;99.90
53410;DHT22;66590;50.734;4.246;2023-04-24T13:32:46;13.00;99.90
53410;DHT22;66590;50.734;4.246;2023-04-24T13:35:13;13.00;99.90
53410;DHT22;66590;50.734;4.246;2023-04-24T13:37:40;13.00;99.90
53410;DHT22;66590;50.734;4.246;2023-04-24T13:40:08;13.20;99.90
53410;DHT22;66590;50.734;4.246;2023-04-24T13:42:37;13.10;99.90
53410;DHT22;66590;50.734;4.246;2023-04-24T13:45:05;12.90;99.90
53410;DHT22;66590;50.734;4.246;2023-04-24T13:47:50;13.00;99.90
53410;DHT22;66590;50.734;4.246;2023-04-24T13:50:18;12.70;99.90
53410;DHT22;66590;50.734;4.246;2023-04-24T13:52:45;12.70;99.90
53410;DHT22;66590;50.734;4.246;2023-04-24T13:55:12;12.60;99.90
53410;DHT22;66590;50.734;4.246;2023-04-24T13:57:40;12.40;99.90
53410;DHT22;66590;50.734;4.246;2023-04-24T14:00:09;12.40;99.90
53410;DHT22;66590;50.734;4.246;2023-04-24T14:02:36;12.30;99.90
53410;DHT22;66590;50.734;4.246;2023-04-24T14:05:04;12.50;99.90
53410;DHT22;66590;50.734;4.246;2023-04-24T14:07:31;12.30;99.90
53410;DHT22;66590;50.734;4.246;2023-04-24T14:09:58;12.30;99.90
53410;DHT22;66590;50.734;4.246;2023-04-24T14:12:25;12.30;99.90
53410;DHT22;66590;50.734;4.246;2023-04-24T14:14:53;12.20;99.90
53410;DHT22;66590;50.734;4.246;2023-04-24T14:17:21;12.10;99.90
53410;DHT22;66590;50.734;4.246;2023-04-24T14:19:48;12.00;99.90
53410;DHT22;66590;50.734;4.246;2023-04-24T14:22:15;11.80;99.90
53410;DHT22;66590;50.734;4.246;2023-04-24T14:24:42;11.80;99.90
53410;DHT22;66590;50.734;4.246;2023-04-24T14:27:09;11.90;99.90
53410;DHT22;66590;50.734;4.246;2023-04-24T14:29:36;11.80;99.90
53410;DHT22;66590;50.734;4.246;2023-04-24T14:32:04;11.80;99.90
53410;DHT22;66590;50.734;4.246;2023-04-24T14:34:31;11.80;99.90
53410;DHT22;66590;50.734;4.246;2023-04-24T14:36:58;11.80;99.90
53410;DHT22;66590;50.734;4.246;2023-04-24T14:39:25;11.80;99.90
53410;DHT22;66590;50.734;4.246;2023-04-24T14:41:52;11.80;99.90
53410;DHT22;66590;50.734;4.246;2023-04-24T14:44:19;11.90;99.90
53410;DHT22;66590;50.734;4.246;2023-04-24T14:46:47;12.00;99.90
53410;DHT22;66590;50.734;4.246;2023-04-24T14:49:16;12.20;99.90
53410;DHT22;66590;50.734;4.246;2023-04-24T14:51:43;12.40;99.90
53410;DHT22;66590;50.734;4.246;2023-04-24T14:54:10;12.30;99.90
53410;DHT22;66590;50.734;4.246;2023-04-24T14:56:37;12.20;99.90
53410;DHT22;66590;50.734;4.246;2023-04-24T14:59:04;12.10;99.90
53410;DHT22;66590;50.734;4.246;2023-04-24T15:01:31;12.00;99.90
53410;DHT22;66590;50.734;4.246;2023-04-24T15:03:58;11.80;99.90
53410;DHT22;66590;50.734;4.246;2023-04-24T15:06:27;11.80;99.90
53410;DHT22;66590;50.734;4.246;2023-04-24T15:08:54;11.80;99.90
53410;DHT22;66590;50.734;4.246;2023-04-24T15:11:21;12.00;99.90
53410;DHT22;66590;50.734;4.246;2023-04-24T15:13:49;12.00;99.90
53410;DHT22;66590;50.734;4.246;2023-04-24T15:16:16;11.90;99.90
53410;DHT22;66590;50.734;4.246;2023-04-24T15:18:43;11.80;99.90
53410;DHT22;66590;50.734;4.246;2023-04-24T15:21:10;11.80;99.90
53410;DHT22;66590;50.734;4.246;2023-04-24T15:23:39;11.70;99.90
53410;DHT22;66590;50.734;4.246;2023-04-24T15:26:06;11.70;99.90
53410;DHT22;66590;50.734;4.246;2023-04-24T15:28:33;11.60;99.90
53410;DHT22;66590;50.734;4.246;2023-04-24T15:31:00;11.50;99.90
53410;DHT22;66590;50.734;4.246;2023-04-24T15:33:34;11.60;99.90
53410;DHT22;66590;50.734;4.246;2023-04-24T15:36:01;11.60;99.90
53410;DHT22;66590;50.734;4.246;2023-04-24T15:38:28;11.60;99.90
53410;DHT22;66590;50.734;4.246;2023-04-24T15:40:57;11.50;99.90
53410;DHT22;66590;50.734;4.246;2023-04-24T15:43:24;11.50;99.90
53410;DHT22;66590;50.734;4.246;2023-04-24T15:45:51;11.50;99.90